Murdock, Nebraska
Current Conditions -  °F | °C
As of 10:35 PM on Friday 19 Dec 2014 (Local Time) from KPMV Reporting Station
Overcast Overcast  
Wind Chill: 23°   Ceiling: 1100
Heat Index: 30°   Visibility: 7mi
Dew Point: 28°   Wind: 7mph
Humidity: 92%   Direction: 150°SSE
Pressure: 30.14"   Gusts: NA
Location:  40.93°N, 96.28°W
Report Text: KPMV 200435Z AUTO 15006KT 7SM SCT006 OVC011 M01/M02 A3014 RMK AO2 T10101022
Loading
Personal Weather Stations






























Interactive Weather Map New forecast layout! Learn more

10-Day Weather Forecast

Advertisements
Track Severe Weather on mobile